createdAt,value
2023-03-31T00:00:24.441Z,30.47
2023-03-31T00:01:24.440Z,30.46
2023-03-31T00:02:24.506Z,30.46
2023-03-31T00:03:24.650Z,30.48
2023-03-31T00:04:24.571Z,30.45
2023-03-31T00:05:24.471Z,30.45
2023-03-31T00:06:24.451Z,30.44
2023-03-31T00:07:24.467Z,30.44
2023-03-31T00:08:24.470Z,30.42
2023-03-31T00:09:24.483Z,30.40
2023-03-31T00:10:24.480Z,30.43
2023-03-31T00:11:24.499Z,30.42
2023-03-31T00:12:24.492Z,30.41
2023-03-31T00:13:24.485Z,30.43
2023-03-31T00:14:24.490Z,30.45
2023-03-31T00:15:24.490Z,30.43
2023-03-31T00:16:24.569Z,30.39
2023-03-31T00:17:24.530Z,30.44
2023-03-31T00:18:24.499Z,30.40
2023-03-31T00:19:24.512Z,30.40
2023-03-31T00:20:24.516Z,30.41
2023-03-31T00:21:24.733Z,30.38
2023-03-31T00:22:24.534Z,30.40
2023-03-31T00:23:24.539Z,30.32
2023-03-31T00:24:24.553Z,30.35
2023-03-31T00:25:24.552Z,30.35
2023-03-31T00:26:24.558Z,30.34
2023-03-31T00:27:24.586Z,30.36
2023-03-31T00:28:24.579Z,30.39
2023-03-31T00:29:24.590Z,30.35
2023-03-31T00:30:24.587Z,30.37
2023-03-31T00:31:24.623Z,30.38
2023-03-31T00:32:24.636Z,30.41
2023-03-31T00:33:24.606Z,30.41
2023-03-31T00:34:24.632Z,30.41
2023-03-31T00:35:24.624Z,30.41
2023-03-31T00:36:24.674Z,30.40
2023-03-31T00:37:24.615Z,30.40
2023-03-31T00:38:24.613Z,30.40
2023-03-31T00:39:24.614Z,30.40
2023-03-31T00:40:24.617Z,30.36
2023-03-31T00:41:24.615Z,30.37
2023-03-31T00:42:24.614Z,30.41
2023-03-31T00:43:24.613Z,30.41
2023-03-31T00:44:24.910Z,30.39
2023-03-31T00:45:24.629Z,30.39
2023-03-31T00:46:24.644Z,30.40
2023-03-31T00:47:24.621Z,30.40
2023-03-31T00:48:24.607Z,30.38
2023-03-31T00:49:24.631Z,30.38
2023-03-31T00:50:24.618Z,30.39
2023-03-31T00:51:24.602Z,30.42
2023-03-31T00:52:24.609Z,30.39
2023-03-31T00:53:24.602Z,30.39
2023-03-31T00:54:24.600Z,30.40
2023-03-31T00:55:24.614Z,30.43
2023-03-31T00:56:24.586Z,30.42
2023-03-31T00:57:24.647Z,30.43
2023-03-31T00:58:24.580Z,30.39
2023-03-31T00:59:24.590Z,30.41
2023-03-31T01:00:24.582Z,30.42
2023-03-31T01:01:24.730Z,30.41
2023-03-31T01:02:24.591Z,30.36
2023-03-31T01:03:24.634Z,30.37
2023-03-31T01:04:24.580Z,30.41
2023-03-31T01:05:24.590Z,30.41
2023-03-31T01:06:24.583Z,30.40
2023-03-31T01:07:24.578Z,30.39
2023-03-31T01:08:24.622Z,30.40
2023-03-31T01:09:24.610Z,30.39
2023-03-31T01:10:24.632Z,30.39
2023-03-31T01:11:24.629Z,30.41
2023-03-31T01:12:24.637Z,30.40
2023-03-31T01:13:24.656Z,30.43
2023-03-31T01:14:24.658Z,30.41
2023-03-31T01:15:24.680Z,30.42
2023-03-31T01:16:24.725Z,30.44
2023-03-31T01:17:24.949Z,30.43
2023-03-31T01:18:24.853Z,30.44
2023-03-31T01:19:24.753Z,30.42
2023-03-31T01:20:24.782Z,30.41
2023-03-31T01:21:24.769Z,30.41
2023-03-31T01:22:24.799Z,30.40
2023-03-31T01:23:24.765Z,30.43
2023-03-31T01:24:24.760Z,30.42
2023-03-31T01:25:24.775Z,30.42
2023-03-31T01:26:24.803Z,30.41
2023-03-31T01:27:24.779Z,30.42
2023-03-31T01:28:24.778Z,30.41
2023-03-31T01:29:24.789Z,30.42
2023-03-31T01:30:24.799Z,30.40
2023-03-31T01:31:24.817Z,30.36
2023-03-31T01:32:24.814Z,30.40
2023-03-31T01:33:24.820Z,30.39
2023-03-31T01:34:24.820Z,30.40
2023-03-31T01:35:24.834Z,30.40
2023-03-31T01:36:24.830Z,30.38
2023-03-31T01:37:24.828Z,30.39
2023-03-31T01:38:24.836Z,30.39
2023-03-31T01:39:24.864Z,30.42
2023-03-31T01:40:24.862Z,30.41
2023-03-31T01:41:24.843Z,30.41
2023-03-31T01:42:24.871Z,30.41
2023-03-31T01:43:24.858Z,30.42
2023-03-31T01:44:24.872Z,30.41
2023-03-31T01:45:24.871Z,30.42
2023-03-31T01:46:24.890Z,30.39
2023-03-31T01:47:24.944Z,30.38
2023-03-31T01:48:24.885Z,30.36
2023-03-31T01:49:24.874Z,30.36
2023-03-31T01:50:24.889Z,30.35
2023-03-31T01:51:24.876Z,30.39
2023-03-31T01:52:24.919Z,30.39
2023-03-31T01:53:24.897Z,30.37
2023-03-31T01:54:24.887Z,30.37
2023-03-31T01:55:24.894Z,30.36
2023-03-31T01:56:24.892Z,30.34
2023-03-31T01:57:24.989Z,30.33
2023-03-31T01:58:24.899Z,30.31
2023-03-31T01:59:24.899Z,30.33
2023-03-31T02:00:24.917Z,30.34
2023-03-31T02:01:24.952Z,30.36
2023-03-31T02:02:24.960Z,30.36
2023-03-31T02:03:25.166Z,30.34
2023-03-31T02:04:24.939Z,30.38
2023-03-31T02:05:24.984Z,30.36
2023-03-31T02:06:24.937Z,30.39
2023-03-31T02:07:24.933Z,30.39
2023-03-31T02:08:24.944Z,30.38
2023-03-31T02:09:24.948Z,30.38
2023-03-31T02:10:24.951Z,30.37
2023-03-31T02:11:24.943Z,30.38
2023-03-31T02:12:24.957Z,30.37
2023-03-31T02:13:24.947Z,30.36
2023-03-31T02:14:24.948Z,30.34
2023-03-31T02:15:24.945Z,30.37
2023-03-31T02:16:24.992Z,30.36
2023-03-31T02:17:25.005Z,30.38
2023-03-31T02:18:24.963Z,30.36
2023-03-31T02:19:24.962Z,30.41
2023-03-31T02:20:24.971Z,30.37
2023-03-31T02:21:24.973Z,30.36
2023-03-31T02:22:24.970Z,30.37
2023-03-31T02:23:24.967Z,30.40
2023-03-31T02:24:24.979Z,30.38
2023-03-31T02:25:24.973Z,30.38
2023-03-31T02:26:24.985Z,30.39
2023-03-31T02:27:24.981Z,30.40
2023-03-31T02:28:24.991Z,30.41
2023-03-31T02:29:24.985Z,30.38
2023-03-31T02:30:24.993Z,30.39
2023-03-31T02:31:25.029Z,30.39
2023-03-31T02:32:25.072Z,30.39
2023-03-31T02:33:25.019Z,30.39
2023-03-31T02:34:25.035Z,30.41
2023-03-31T02:35:25.142Z,30.40
2023-03-31T02:36:25.052Z,30.40
2023-03-31T02:37:25.048Z,30.41
2023-03-31T02:38:25.054Z,30.41
2023-03-31T02:39:25.057Z,30.43
2023-03-31T02:40:25.068Z,30.41
2023-03-31T02:41:25.097Z,30.45
2023-03-31T02:42:25.095Z,30.43
2023-03-31T02:43:25.113Z,30.40
2023-03-31T02:44:25.110Z,30.41
2023-03-31T02:45:25.138Z,30.39
2023-03-31T02:46:25.239Z,30.39
2023-03-31T02:47:25.196Z,30.40
2023-03-31T02:48:25.134Z,30.38
2023-03-31T02:49:25.140Z,30.38
2023-03-31T02:50:25.155Z,30.34
2023-03-31T02:51:25.156Z,30.34
2023-03-31T02:52:25.194Z,30.31
2023-03-31T02:53:25.187Z,30.32
2023-03-31T02:54:25.186Z,30.32
2023-03-31T02:55:25.199Z,30.33
2023-03-31T02:56:25.203Z,30.31
2023-03-31T02:57:25.273Z,29.99
2023-03-31T02:58:25.203Z,29.40
2023-03-31T02:59:25.248Z,29.34
2023-03-31T03:00:25.220Z,29.17
2023-03-31T03:01:25.247Z,29.04
2023-03-31T03:02:25.430Z,28.98
2023-03-31T03:03:25.245Z,28.87
2023-03-31T03:04:25.226Z,28.80
2023-03-31T03:05:25.228Z,28.79
2023-03-31T03:06:25.239Z,28.78
2023-03-31T03:07:25.240Z,28.78
2023-03-31T03:08:25.261Z,28.75
2023-03-31T03:09:25.261Z,28.71
2023-03-31T03:10:25.278Z,28.63
2023-03-31T03:11:25.306Z,28.57
2023-03-31T03:12:25.390Z,28.51
2023-03-31T03:13:25.446Z,28.53
2023-03-31T03:14:25.459Z,28.53
2023-03-31T03:15:25.469Z,28.48
2023-03-31T03:16:25.506Z,28.47
2023-03-31T03:17:25.513Z,28.43
2023-03-31T03:18:25.488Z,28.43
2023-03-31T03:19:25.522Z,28.38
2023-03-31T03:20:25.517Z,28.35
2023-03-31T03:21:25.521Z,28.26
2023-03-31T03:22:25.539Z,28.28
2023-03-31T03:23:25.566Z,28.31
2023-03-31T03:24:25.560Z,28.31
2023-03-31T03:25:25.571Z,28.22
2023-03-31T03:26:25.605Z,28.22
2023-03-31T03:27:25.599Z,28.19
2023-03-31T03:28:25.607Z,28.12
2023-03-31T03:29:25.631Z,28.19
2023-03-31T03:30:25.645Z,28.17
2023-03-31T03:31:25.756Z,28.14
2023-03-31T03:32:25.681Z,28.08
2023-03-31T03:33:25.672Z,28.04
2023-03-31T03:34:25.725Z,28.06
2023-03-31T03:35:25.694Z,28.08
2023-03-31T03:36:25.805Z,28.08
2023-03-31T03:37:25.717Z,28.00
2023-03-31T03:38:25.715Z,27.98
2023-03-31T03:39:25.723Z,27.99
2023-03-31T03:40:25.732Z,27.99
2023-03-31T03:41:25.753Z,28.02
2023-03-31T03:42:25.773Z,27.98
2023-03-31T03:43:25.756Z,28.00
2023-03-31T03:44:25.783Z,28.03
2023-03-31T03:45:25.793Z,28.00
2023-03-31T03:46:25.865Z,28.00
2023-03-31T03:47:25.867Z,28.02
2023-03-31T03:48:25.870Z,28.00
2023-03-31T03:49:25.909Z,28.03
2023-03-31T03:50:25.957Z,27.97
2023-03-31T03:51:26.006Z,27.97
2023-03-31T03:52:26.053Z,27.94
2023-03-31T03:53:26.084Z,27.95
2023-03-31T03:54:26.134Z,27.97
2023-03-31T03:55:26.189Z,27.96
2023-03-31T03:56:26.234Z,28.00
2023-03-31T03:57:26.405Z,28.04
2023-03-31T03:58:26.326Z,28.03
2023-03-31T03:59:26.357Z,27.98
2023-03-31T04:00:26.396Z,28.00
2023-03-31T04:01:26.449Z,27.98
2023-03-31T04:02:28.090Z,27.99
2023-03-31T04:03:26.591Z,28.02
2023-03-31T04:04:26.587Z,28.01
2023-03-31T04:05:26.658Z,28.00
2023-03-31T04:06:26.682Z,28.02
2023-03-31T04:07:26.725Z,28.00
2023-03-31T04:08:26.777Z,28.03
2023-03-31T04:09:26.818Z,28.00
2023-03-31T04:10:26.879Z,28.05
2023-03-31T04:11:26.921Z,28.02
2023-03-31T04:12:26.994Z,28.00
2023-03-31T04:13:27.024Z,27.99
2023-03-31T04:14:27.089Z,28.01
2023-03-31T04:15:27.116Z,28.03
2023-03-31T04:16:27.203Z,28.05
2023-03-31T04:17:27.223Z,28.09
2023-03-31T04:18:27.245Z,28.12
2023-03-31T04:19:27.299Z,28.15
2023-03-31T04:20:27.349Z,28.18
2023-03-31T04:21:27.388Z,28.19
2023-03-31T04:22:27.453Z,28.18
2023-03-31T04:23:27.496Z,28.17
2023-03-31T04:24:27.503Z,28.19
2023-03-31T04:25:27.513Z,28.23
2023-03-31T04:26:27.523Z,28.22
2023-03-31T04:27:27.529Z,28.26
2023-03-31T04:28:27.536Z,28.25
2023-03-31T04:29:27.552Z,28.27
2023-03-31T04:30:27.558Z,28.28
2023-03-31T04:31:27.575Z,28.29
2023-03-31T04:32:27.595Z,28.31
2023-03-31T04:33:27.587Z,28.35
2023-03-31T04:34:27.585Z,28.37
2023-03-31T04:35:27.609Z,28.39
2023-03-31T04:36:27.595Z,28.38
2023-03-31T04:37:27.621Z,28.39
2023-03-31T04:38:27.668Z,28.39
2023-03-31T04:39:27.725Z,28.40
2023-03-31T04:40:27.788Z,28.39
2023-03-31T04:41:27.838Z,28.37
2023-03-31T04:42:27.930Z,28.40
2023-03-31T04:43:27.974Z,28.41
2023-03-31T04:44:28.033Z,28.42
2023-03-31T04:45:28.106Z,28.41
2023-03-31T04:46:28.177Z,28.42
2023-03-31T04:47:28.276Z,28.43
2023-03-31T04:48:28.261Z,28.47
2023-03-31T04:49:28.312Z,28.47
2023-03-31T04:50:28.365Z,28.50
2023-03-31T04:51:28.426Z,28.51
2023-03-31T04:52:28.494Z,28.52
2023-03-31T04:53:28.503Z,28.54
2023-03-31T04:54:28.522Z,28.55
2023-03-31T04:55:28.556Z,28.56
2023-03-31T04:56:28.558Z,28.58
2023-03-31T04:57:28.754Z,28.57
2023-03-31T04:58:28.580Z,28.56
2023-03-31T04:59:28.577Z,28.49
2023-03-31T05:00:28.584Z,28.51
2023-03-31T05:01:28.654Z,28.50
2023-03-31T05:02:28.744Z,28.46
2023-03-31T05:03:28.759Z,28.44
2023-03-31T05:04:28.624Z,28.44
2023-03-31T05:05:28.630Z,28.43
2023-03-31T05:06:28.633Z,28.42
2023-03-31T05:07:28.656Z,28.41
2023-03-31T05:08:28.673Z,28.39
2023-03-31T05:09:28.674Z,28.40
2023-03-31T05:10:28.701Z,28.40
2023-03-31T05:11:28.715Z,28.40
2023-03-31T05:12:28.747Z,28.41
2023-03-31T05:13:28.812Z,28.43
2023-03-31T05:14:28.886Z,28.48
2023-03-31T05:15:28.957Z,28.41
2023-03-31T05:16:29.064Z,28.40
2023-03-31T05:17:29.153Z,28.42
2023-03-31T05:18:29.119Z,28.36
2023-03-31T05:19:29.187Z,28.36
2023-03-31T05:20:29.240Z,28.41
2023-03-31T05:21:29.301Z,28.36
2023-03-31T05:22:29.365Z,28.42
2023-03-31T05:23:29.432Z,28.39
2023-03-31T05:24:29.475Z,28.38
2023-03-31T05:25:29.586Z,28.43
2023-03-31T05:26:29.632Z,28.37
2023-03-31T05:27:29.702Z,28.47
2023-03-31T05:28:31.227Z,28.46
2023-03-31T05:29:29.854Z,28.52
2023-03-31T05:30:30.018Z,28.61
2023-03-31T05:31:30.024Z,28.61
2023-03-31T05:32:30.102Z,28.62
2023-03-31T05:33:30.146Z,28.98
2023-03-31T05:34:30.222Z,29.47
2023-03-31T05:35:30.295Z,29.62
2023-03-31T05:36:30.378Z,30.93
2023-03-31T05:37:30.427Z,30.98
2023-03-31T05:38:30.507Z,30.90
2023-03-31T05:39:30.535Z,30.62
2023-03-31T05:40:30.562Z,30.77
2023-03-31T05:41:30.580Z,31.04
2023-03-31T05:42:30.604Z,31.54
2023-03-31T05:43:30.607Z,31.47
2023-03-31T05:44:30.618Z,31.51
2023-03-31T05:45:30.657Z,31.54
2023-03-31T05:46:30.779Z,31.78
2023-03-31T05:47:30.759Z,31.90
2023-03-31T05:48:30.782Z,31.96
2023-03-31T05:49:30.834Z,32.29
2023-03-31T05:50:30.894Z,32.61
2023-03-31T05:51:30.956Z,32.78
2023-03-31T05:52:31.048Z,33.26
2023-03-31T05:53:31.080Z,32.81
2023-03-31T05:54:31.138Z,32.59
2023-03-31T05:55:33.515Z,32.57
2023-03-31T05:56:31.264Z,32.44
2023-03-31T05:57:31.443Z,31.54
2023-03-31T05:58:31.281Z,31.08
2023-03-31T05:59:31.252Z,30.92
2023-03-31T06:00:31.252Z,31.02
2023-03-31T06:01:31.271Z,31.36
2023-03-31T06:02:31.354Z,30.94
2023-03-31T06:03:31.312Z,31.01
2023-03-31T06:04:31.308Z,31.04
2023-03-31T06:05:31.310Z,30.74
2023-03-31T06:06:31.366Z,31.35
2023-03-31T06:07:31.269Z,31.03
2023-03-31T06:08:31.262Z,30.72
2023-03-31T06:09:31.291Z,30.64
2023-03-31T06:10:31.273Z,30.86
2023-03-31T06:11:31.274Z,30.87
2023-03-31T06:12:31.270Z,30.80
2023-03-31T06:13:31.305Z,30.74
2023-03-31T06:14:31.338Z,30.73
2023-03-31T06:15:31.358Z,31.17
2023-03-31T06:16:31.448Z,31.35
2023-03-31T06:17:31.425Z,31.70
2023-03-31T06:18:31.426Z,31.23
2023-03-31T06:19:31.455Z,33.57
2023-03-31T06:20:31.585Z,32.75
2023-03-31T06:21:31.494Z,33.22
2023-03-31T06:22:31.528Z,33.59
2023-03-31T06:23:31.531Z,32.99
2023-03-31T06:24:31.541Z,33.01
2023-03-31T06:25:43.807Z,30.18
2023-03-31T06:26:32.593Z,30.23
2023-03-31T06:27:31.539Z,30.96
2023-03-31T06:28:31.548Z,31.85
2023-03-31T06:29:31.542Z,31.66
2023-03-31T06:30:31.537Z,32.24
2023-03-31T06:31:31.602Z,32.76
2023-03-31T06:32:31.566Z,32.84
2023-03-31T06:33:31.549Z,33.30
2023-03-31T06:34:31.557Z,32.29
2023-03-31T06:35:31.761Z,32.68
2023-03-31T06:36:31.557Z,33.69
2023-03-31T06:37:31.584Z,33.39
2023-03-31T06:38:31.583Z,32.83
2023-03-31T06:39:31.879Z,32.77
2023-03-31T06:40:31.624Z,33.03
2023-03-31T06:41:31.609Z,33.35
2023-03-31T06:42:31.618Z,33.32
2023-03-31T06:43:31.630Z,33.48
2023-03-31T06:44:31.635Z,34.69
2023-03-31T06:45:31.647Z,33.97
2023-03-31T06:46:31.722Z,34.65
2023-03-31T06:47:31.718Z,33.49
2023-03-31T06:48:31.678Z,33.40
2023-03-31T06:49:31.700Z,33.63
2023-03-31T06:50:31.710Z,33.72
2023-03-31T06:51:32.764Z,32.76
2023-03-31T06:52:31.770Z,33.83
2023-03-31T06:53:32.097Z,33.49
2023-03-31T06:54:31.784Z,33.36
2023-03-31T06:55:31.757Z,33.10
2023-03-31T06:56:31.753Z,33.02
2023-03-31T06:57:31.845Z,33.07
2023-03-31T06:58:31.905Z,32.94
2023-03-31T06:59:31.778Z,32.74
2023-03-31T07:00:31.793Z,32.41
2023-03-31T07:01:31.944Z,31.05
2023-03-31T07:02:31.922Z,32.15
2023-03-31T07:03:31.909Z,31.99
2023-03-31T07:04:31.827Z,32.14
2023-03-31T07:05:31.835Z,32.08
2023-03-31T07:06:31.845Z,31.94
2023-03-31T07:07:32.067Z,31.72
2023-03-31T07:08:31.873Z,31.15
2023-03-31T07:09:31.892Z,31.16
2023-03-31T07:10:31.938Z,31.58
2023-03-31T07:11:31.972Z,31.47
2023-03-31T07:12:31.989Z,31.58
2023-03-31T07:13:32.061Z,31.63
2023-03-31T07:14:32.070Z,31.50
2023-03-31T07:15:32.130Z,31.67
2023-03-31T07:16:32.245Z,31.64
2023-03-31T07:17:32.222Z,32.06
2023-03-31T07:18:34.487Z,32.07
2023-03-31T07:19:32.278Z,31.86
2023-03-31T07:20:32.329Z,32.01
2023-03-31T07:21:32.277Z,31.72
2023-03-31T07:22:32.290Z,31.74
2023-03-31T07:23:32.317Z,31.58
2023-03-31T07:24:32.309Z,31.68
2023-03-31T07:25:32.334Z,32.04
2023-03-31T07:26:32.376Z,32.32
2023-03-31T07:27:32.351Z,32.96
2023-03-31T07:28:32.380Z,33.06
2023-03-31T07:29:32.394Z,32.95
2023-03-31T07:30:32.391Z,32.53
2023-03-31T07:31:32.413Z,33.31
2023-03-31T07:32:32.459Z,33.09
2023-03-31T07:33:32.435Z,33.13
2023-03-31T07:34:32.832Z,32.65
2023-03-31T07:35:32.475Z,32.93
2023-03-31T07:36:32.473Z,32.88
2023-03-31T07:37:32.514Z,32.88
2023-03-31T07:38:32.440Z,33.19
2023-03-31T07:39:32.445Z,32.51
2023-03-31T07:40:32.445Z,32.49
2023-03-31T07:41:32.458Z,32.41
2023-03-31T07:42:32.451Z,32.22
2023-03-31T07:43:32.462Z,32.71
2023-03-31T07:44:32.505Z,32.51
2023-03-31T07:45:32.504Z,32.45
2023-03-31T07:46:32.632Z,32.39
2023-03-31T07:47:32.487Z,32.36
2023-03-31T07:48:32.494Z,32.32
2023-03-31T07:49:32.501Z,32.20
2023-03-31T07:50:32.528Z,32.12
2023-03-31T07:51:32.526Z,31.54
2023-03-31T07:52:32.522Z,31.57
2023-03-31T07:53:32.563Z,31.99
2023-03-31T07:54:32.626Z,31.59
2023-03-31T07:55:32.642Z,31.79
2023-03-31T07:56:32.699Z,31.69
2023-03-31T07:57:32.834Z,31.82
2023-03-31T07:58:32.821Z,31.40
2023-03-31T07:59:32.889Z,31.07
2023-03-31T08:00:32.959Z,31.25
2023-03-31T08:01:33.065Z,31.29
2023-03-31T08:02:33.222Z,31.05
2023-03-31T08:03:33.190Z,30.82
2023-03-31T08:04:33.316Z,30.42
2023-03-31T08:05:33.325Z,30.83
2023-03-31T08:06:33.512Z,30.06
2023-03-31T08:07:33.789Z,30.46
2023-03-31T08:08:33.512Z,30.07
2023-03-31T08:09:33.620Z,29.85
2023-03-31T08:10:33.627Z,30.09
2023-03-31T08:11:33.690Z,30.00
2023-03-31T08:12:33.725Z,29.78
2023-03-31T08:13:33.693Z,29.81
2023-03-31T08:14:40.659Z,30.06
2023-03-31T08:15:34.735Z,30.11
2023-03-31T08:16:33.741Z,30.12
2023-03-31T08:17:33.751Z,30.37
2023-03-31T08:18:33.731Z,29.91
2023-03-31T08:19:33.739Z,30.60
2023-03-31T08:20:33.750Z,30.42
2023-03-31T08:21:33.761Z,30.44
2023-03-31T08:22:33.773Z,30.09
2023-03-31T08:23:33.779Z,29.91
2023-03-31T08:24:33.792Z,30.03
2023-03-31T08:25:33.870Z,29.83
2023-03-31T08:26:33.923Z,29.83
2023-03-31T08:27:33.993Z,29.93
2023-03-31T08:28:34.035Z,29.92
2023-03-31T08:29:34.100Z,29.87
2023-03-31T08:30:34.129Z,30.26
2023-03-31T08:31:34.269Z,30.46
2023-03-31T08:32:34.295Z,30.19
2023-03-31T08:33:34.354Z,30.82
2023-03-31T08:34:34.412Z,30.66
2023-03-31T08:35:34.449Z,30.43
2023-03-31T08:36:34.518Z,30.67
2023-03-31T08:37:34.608Z,30.62
2023-03-31T08:38:34.656Z,30.65
2023-03-31T08:39:34.724Z,30.61
2023-03-31T08:40:34.758Z,30.32
2023-03-31T08:41:34.826Z,30.05
2023-03-31T08:42:34.873Z,30.49
2023-03-31T08:43:34.941Z,30.49
2023-03-31T08:44:35.016Z,30.46
2023-03-31T08:45:35.103Z,30.23
2023-03-31T08:46:35.275Z,30.76
2023-03-31T08:47:35.273Z,30.89
2023-03-31T08:48:35.301Z,30.69
2023-03-31T08:49:35.381Z,30.68
2023-03-31T08:50:35.355Z,30.51
2023-03-31T08:51:35.368Z,30.28
2023-03-31T08:52:35.369Z,30.44
2023-03-31T08:53:35.398Z,30.22
2023-03-31T08:54:35.416Z,30.26
2023-03-31T08:55:35.436Z,30.31
2023-03-31T08:56:35.483Z,30.45
2023-03-31T08:57:35.476Z,31.05
2023-03-31T08:58:35.590Z,31.42
2023-03-31T08:59:35.649Z,31.19
2023-03-31T09:00:35.690Z,31.10
2023-03-31T09:01:44.370Z,31.01
2023-03-31T09:02:36.945Z,30.77
2023-03-31T09:03:35.843Z,30.38
2023-03-31T09:04:35.771Z,30.85
2023-03-31T09:05:39.177Z,30.60
2023-03-31T09:06:36.780Z,30.91
2023-03-31T09:07:35.808Z,30.48
2023-03-31T09:08:35.819Z,30.65
2023-03-31T09:09:35.800Z,30.25
2023-03-31T09:10:35.802Z,30.82
2023-03-31T09:11:35.822Z,30.49
2023-03-31T09:12:35.815Z,30.28
2023-03-31T09:13:35.812Z,31.24
2023-03-31T09:14:35.813Z,31.18
2023-03-31T09:15:35.827Z,31.14
2023-03-31T09:16:35.846Z,31.59
2023-03-31T09:17:35.854Z,31.36
2023-03-31T09:18:35.942Z,31.56
2023-03-31T09:19:35.868Z,31.20
2023-03-31T09:20:35.828Z,31.44
2023-03-31T09:21:35.833Z,31.39
2023-03-31T09:22:35.850Z,30.47
2023-03-31T09:23:35.851Z,30.57
2023-03-31T09:24:35.907Z,30.02
2023-03-31T09:25:35.861Z,30.35
2023-03-31T09:26:35.863Z,29.96
2023-03-31T09:27:35.889Z,30.04
2023-03-31T09:28:35.864Z,30.05
2023-03-31T09:29:35.875Z,29.94
2023-03-31T09:30:35.888Z,29.79
2023-03-31T09:31:35.912Z,29.72
2023-03-31T09:32:35.939Z,29.97
2023-03-31T09:33:35.912Z,30.01
2023-03-31T09:34:35.926Z,30.02
2023-03-31T09:35:35.988Z,29.77
2023-03-31T09:36:35.957Z,29.84
2023-03-31T09:37:35.959Z,29.80
2023-03-31T09:38:35.975Z,29.93
2023-03-31T09:39:35.963Z,29.85
2023-03-31T09:40:36.046Z,29.61
2023-03-31T09:41:36.102Z,29.74
2023-03-31T09:42:36.224Z,29.76
2023-03-31T09:43:36.209Z,29.89
2023-03-31T09:44:36.247Z,29.57
2023-03-31T09:45:36.317Z,29.56
2023-03-31T09:46:36.383Z,29.64
2023-03-31T09:47:36.468Z,29.71
2023-03-31T09:48:36.590Z,30.18
2023-03-31T09:49:36.522Z,30.18
2023-03-31T09:50:36.569Z,30.21
2023-03-31T09:51:36.647Z,30.64
2023-03-31T09:52:36.670Z,30.20
2023-03-31T09:53:36.724Z,30.09
2023-03-31T09:54:36.776Z,30.10
2023-03-31T09:55:40.056Z,30.27
2023-03-31T09:56:36.856Z,30.28
2023-03-31T09:57:36.956Z,30.61
2023-03-31T09:58:36.878Z,30.31
2023-03-31T09:59:36.884Z,30.14
2023-03-31T10:00:36.893Z,30.05
2023-03-31T10:01:36.895Z,30.18
2023-03-31T10:02:36.907Z,29.98
2023-03-31T10:03:37.107Z,29.87
2023-03-31T10:04:36.953Z,29.94
2023-03-31T10:05:36.924Z,30.15
2023-03-31T10:06:36.932Z,29.91
2023-03-31T10:07:36.950Z,30.12
2023-03-31T10:08:36.972Z,29.69
2023-03-31T10:09:36.934Z,29.89
2023-03-31T10:10:36.953Z,30.12
2023-03-31T10:11:36.960Z,29.52
2023-03-31T10:12:36.992Z,29.86
2023-03-31T10:13:36.975Z,29.88
2023-03-31T10:14:36.977Z,29.74
2023-03-31T10:15:37.005Z,29.86
2023-03-31T10:16:37.027Z,30.01
2023-03-31T10:17:47.067Z,30.05
2023-03-31T10:18:38.076Z,29.99
2023-03-31T10:19:37.034Z,30.26
2023-03-31T10:20:37.033Z,30.10
2023-03-31T10:21:37.002Z,30.44
2023-03-31T10:22:37.022Z,30.30
2023-03-31T10:23:37.011Z,30.64
2023-03-31T10:24:37.011Z,31.03
2023-03-31T10:25:37.034Z,31.10
2023-03-31T10:26:37.045Z,30.93
2023-03-31T10:27:37.041Z,30.97
2023-03-31T10:28:37.042Z,30.69
2023-03-31T10:29:37.035Z,30.29
2023-03-31T10:30:37.079Z,30.49
2023-03-31T10:31:37.056Z,30.67
2023-03-31T10:32:37.108Z,30.84
2023-03-31T10:33:37.094Z,30.62
2023-03-31T10:34:37.080Z,30.91
2023-03-31T10:35:37.064Z,31.06
2023-03-31T10:36:37.040Z,30.62
2023-03-31T10:37:37.044Z,31.09
2023-03-31T10:38:37.047Z,31.90
2023-03-31T10:39:37.053Z,32.15
2023-03-31T10:40:37.093Z,31.15
2023-03-31T10:41:37.126Z,30.96
2023-03-31T10:42:37.077Z,31.23
2023-03-31T10:43:37.064Z,31.08
2023-03-31T10:44:37.066Z,30.83
2023-03-31T10:45:38.546Z,31.09
2023-03-31T10:46:37.121Z,30.51
2023-03-31T10:47:37.210Z,30.80
2023-03-31T10:48:37.187Z,30.77
2023-03-31T10:49:37.230Z,30.91
2023-03-31T10:50:37.285Z,30.37
2023-03-31T10:51:37.306Z,30.45
2023-03-31T10:52:37.294Z,30.64
2023-03-31T10:53:37.293Z,30.18
2023-03-31T10:54:37.315Z,30.73
2023-03-31T10:55:37.313Z,30.96
2023-03-31T10:56:37.331Z,30.55
2023-03-31T10:57:37.389Z,30.72
2023-03-31T10:58:37.324Z,31.28
2023-03-31T10:59:37.331Z,32.10
2023-03-31T11:00:37.324Z,31.70
2023-03-31T11:01:37.332Z,31.80
2023-03-31T11:02:37.385Z,31.70
2023-03-31T11:03:37.417Z,32.28
2023-03-31T11:04:37.353Z,32.64
2023-03-31T11:05:37.364Z,32.10
2023-03-31T11:06:37.384Z,32.06
2023-03-31T11:07:37.371Z,31.87
2023-03-31T11:08:37.413Z,32.20
2023-03-31T11:09:37.440Z,32.00
2023-03-31T11:10:37.516Z,32.03
2023-03-31T11:11:37.583Z,31.86
2023-03-31T11:12:37.654Z,32.13
2023-03-31T11:13:37.720Z,31.98
2023-03-31T11:14:37.736Z,31.81
2023-03-31T11:15:37.791Z,32.45
2023-03-31T11:16:37.821Z,32.24
2023-03-31T11:17:37.742Z,32.36
2023-03-31T11:18:37.774Z,32.20
2023-03-31T11:19:37.807Z,32.21
2023-03-31T11:20:37.877Z,32.34
2023-03-31T11:21:38.743Z,32.35
2023-03-31T11:22:37.995Z,32.54
2023-03-31T11:23:38.035Z,32.67
2023-03-31T11:24:38.038Z,32.44
2023-03-31T11:25:38.020Z,32.25
2023-03-31T11:26:38.065Z,32.16
2023-03-31T11:27:38.027Z,32.00
2023-03-31T11:28:38.034Z,31.84
2023-03-31T11:29:38.009Z,31.67
2023-03-31T11:30:38.017Z,31.56
2023-03-31T11:31:38.026Z,31.49
2023-03-31T11:32:38.036Z,31.36
2023-03-31T11:33:37.996Z,31.29
2023-03-31T11:34:38.004Z,31.20
2023-03-31T11:35:38.023Z,31.10
2023-03-31T11:36:37.987Z,30.98
2023-03-31T11:37:37.975Z,30.86
2023-03-31T11:38:37.968Z,30.83
2023-03-31T11:39:37.955Z,30.74
2023-03-31T11:40:37.959Z,30.60
2023-03-31T11:41:37.951Z,30.48
2023-03-31T11:42:37.940Z,30.35
2023-03-31T11:43:37.934Z,30.35
2023-03-31T11:44:37.948Z,30.24
2023-03-31T11:45:37.942Z,30.19
2023-03-31T11:46:38.039Z,30.12
2023-03-31T11:47:38.038Z,30.06
2023-03-31T11:48:37.933Z,30.06
2023-03-31T11:49:37.934Z,29.98
2023-03-31T11:50:37.940Z,29.94
2023-03-31T11:51:37.917Z,29.89
2023-03-31T11:52:37.925Z,29.85
2023-03-31T11:53:37.916Z,29.71
2023-03-31T11:54:37.924Z,29.60
2023-03-31T11:55:37.918Z,29.58
2023-03-31T11:56:37.939Z,29.64
2023-03-31T11:57:37.921Z,29.60
2023-03-31T11:58:37.929Z,29.58
2023-03-31T11:59:37.915Z,29.51
2023-03-31T12:00:37.927Z,29.49
2023-03-31T12:01:37.927Z,29.43
2023-03-31T12:02:37.986Z,29.43
2023-03-31T12:03:37.934Z,29.43
2023-03-31T12:04:37.899Z,29.44
2023-03-31T12:05:37.917Z,29.40
2023-03-31T12:06:37.900Z,29.43
2023-03-31T12:07:37.901Z,29.45
2023-03-31T12:08:37.919Z,29.44
2023-03-31T12:09:37.908Z,29.43
2023-03-31T12:10:37.902Z,29.40
2023-03-31T12:11:37.905Z,29.41
2023-03-31T12:12:37.888Z,29.40
2023-03-31T12:13:37.890Z,29.37
2023-03-31T12:14:37.888Z,29.38
2023-03-31T12:15:37.918Z,29.32
2023-03-31T12:16:37.945Z,29.35
2023-03-31T12:17:37.950Z,29.33
2023-03-31T12:18:37.893Z,29.34
2023-03-31T12:19:37.886Z,29.33
2023-03-31T12:20:37.981Z,29.32
2023-03-31T12:21:37.892Z,29.32
2023-03-31T12:22:37.894Z,29.33
2023-03-31T12:23:37.898Z,29.32
2023-03-31T12:24:37.898Z,29.32
2023-03-31T12:25:37.898Z,29.33
2023-03-31T12:26:37.913Z,29.35
2023-03-31T12:27:37.930Z,29.35
2023-03-31T12:28:37.919Z,29.33
2023-03-31T12:29:37.959Z,29.32
2023-03-31T12:30:37.955Z,29.34
2023-03-31T12:31:38.043Z,29.31
2023-03-31T12:32:38.008Z,29.32
2023-03-31T12:33:37.987Z,29.31
2023-03-31T12:34:37.973Z,29.32
2023-03-31T12:35:38.012Z,29.32
2023-03-31T12:36:37.956Z,29.31
2023-03-31T12:37:37.951Z,29.32
2023-03-31T12:38:37.964Z,29.34
2023-03-31T12:39:37.957Z,29.33
2023-03-31T12:40:37.958Z,29.34
2023-03-31T12:41:37.952Z,29.34
2023-03-31T12:42:37.962Z,29.35
2023-03-31T12:43:37.948Z,29.34
2023-03-31T12:44:37.940Z,29.35
2023-03-31T12:45:37.940Z,29.34
2023-03-31T12:46:37.953Z,29.32
2023-03-31T12:47:37.966Z,29.31
2023-03-31T12:48:37.931Z,29.32
2023-03-31T12:49:37.934Z,29.31
2023-03-31T12:50:37.943Z,29.32
2023-03-31T12:51:37.935Z,29.32
2023-03-31T12:52:37.934Z,29.32